^^
Saratoga-Weather Station Historical Data
Daily Summary for April 5, 2021 Units:  Metric    English   Both
Daily Weekly Monthly Yearly Custom
  High: Low: Average:
Temperature: 8.9 °C 4.4 °C 6.3 °C
Dew Point: 7.2 °C 1.5 °C 3.5 °C
Humidity: 90% 76% 82%
Wind Speed: 13km/h 0km/h 5.8km/h
Wind Gust: 24.1km/h - -
Wind- - West
Pressure: 1006.4 hPa 1004.1 hPa -
Precipitation: 0.0 mm    
Historical Graphs
 
 
Tabular Data for April 5, 2021
Time Temperature Dew Point Pressure Wind Wind Speed Wind Gust Humidity Rainfall Rate (Hourly) solar
00:04 8.9 °C 7.2 °C 1004.7 hPa NW 6.4 km/h 12.9 km/h 89% 0.0 mm 0 W/m2
00:09 8.9 °C 7.2 °C 1004.7 hPa West 9.7 km/h 14.5 km/h 89% 0.0 mm 0 W/m2
00:14 8.8 °C 7.1 °C 1004.7 hPa West 9.7 km/h 12.9 km/h 89% 0.0 mm 0 W/m2
00:19 8.9 °C 7.2 °C 1004.7 hPa West 1.4 km/h 6.4 km/h 89% 0.0 mm 0 W/m2
00:24 8.8 °C 7.1 °C 1004.7 hPa WSW 13 km/h 12.9 km/h 89% 0.0 mm 0 W/m2
00:29 8.8 °C 7.1 °C 1004.4 hPa West 4.7 km/h 9.7 km/h 89% 0.0 mm 0 W/m2
00:34 8.7 °C 7 °C 1004.4 hPa West 6.4 km/h 9.7 km/h 89% 0.0 mm 0 W/m2
00:39 8.7 °C 7.2 °C 1004.4 hPa West 9.7 km/h 9.7 km/h 90% 0.0 mm 0 W/m2
00:44 8.6 °C 7.1 °C 1004.4 hPa WSW 6.4 km/h 16.1 km/h 90% 0.0 mm 0 W/m2
00:49 8.6 °C 7.1 °C 1004.4 hPa West 4.7 km/h 9.7 km/h 90% 0.0 mm 0 W/m2
00:54 8.4 °C 6.9 °C 1004.4 hPa West 9.7 km/h 14.5 km/h 90% 0.0 mm 0 W/m2
00:59 8.4 °C 6.9 °C 1004.4 hPa WSW 4.7 km/h 9.7 km/h 90% 0.0 mm 0 W/m2
01:04 8.3 °C 6.8 °C 1004.4 hPa West 4.7 km/h 11.3 km/h 90% 0.0 mm 0 W/m2
01:09 8.3 °C 6.8 °C 1004.4 hPa WNW 4.7 km/h 9.7 km/h 90% 0.0 mm 0 W/m2
01:14 8.2 °C 6.7 °C 1004.4 hPa WNW 3.2 km/h 9.7 km/h 90% 0.0 mm 0 W/m2
01:19 8.2 °C 6.7 °C 1004.4 hPa West 6.4 km/h 12.9 km/h 90% 0.0 mm 0 W/m2
01:24 8.1 °C 6.4 °C 1004.4 hPa West 3.2 km/h 17.7 km/h 89% 0.0 mm 0 W/m2
01:29 8.1 °C 6.4 °C 1004.1 hPa West 4.7 km/h 14.5 km/h 89% 0.0 mm 0 W/m2
01:34 8 °C 6.3 °C 1004.4 hPa WSW 6.4 km/h 17.7 km/h 89% 0.0 mm 0 W/m2
01:39 7.9 °C 6.2 °C 1004.4 hPa SW 9.7 km/h 11.3 km/h 89% 0.0 mm 0 W/m2
01:44 7.9 °C 6 °C 1004.4 hPa WSW 7.9 km/h 14.5 km/h 88% 0.0 mm 0 W/m2
01:49 7.8 °C 5.9 °C 1004.4 hPa WNW 4.7 km/h 11.3 km/h 88% 0.0 mm 0 W/m2
01:54 7.7 °C 5.5 °C 1004.4 hPa WNW 3.2 km/h 11.3 km/h 86% 0.0 mm 0 W/m2
01:59 7.7 °C 5.5 °C 1004.4 hPa West 3.2 km/h 12.9 km/h 86% 0.0 mm 0 W/m2
02:04 7.7 °C 5.2 °C 1004.4 hPa WSW 6.4 km/h 8 km/h 84% 0.0 mm 0 W/m2
02:09 7.6 °C 4.9 °C 1004.4 hPa West 3.2 km/h 6.4 km/h 83% 0.0 mm 0 W/m2
02:14 7.6 °C 4.9 °C 1004.4 hPa West 6.4 km/h 9.7 km/h 83% 0.0 mm 0 W/m2
02:19 7.5 °C 4.6 °C 1004.4 hPa NW 4.7 km/h 6.4 km/h 82% 0.0 mm 0 W/m2
02:24 7.4 °C 4.4 °C 1004.4 hPa Calm   9.7 km/h 81% 0.0 mm 0 W/m2
02:29 7.3 °C 4.1 °C 1004.1 hPa West 4.7 km/h 11.3 km/h 80% 0.0 mm 0 W/m2
02:34 7.3 °C 4.1 °C 1004.1 hPa WSW 4.7 km/h 8 km/h 80% 0.0 mm 0 W/m2
02:39 7.2 °C 3.4 °C 1004.1 hPa WNW 4.7 km/h 14.5 km/h 77% 0.0 mm 0 W/m2
02:44 7.2 °C 3.4 °C 1004.1 hPa WNW 6.4 km/h 8 km/h 77% 0.0 mm 0 W/m2
02:49 7.2 °C 3.4 °C 1004.1 hPa WSW 3.2 km/h 14.5 km/h 77% 0.0 mm 0 W/m2
02:54 7.1 °C 3.3 °C 1004.1 hPa WSW 3.2 km/h 12.9 km/h 77% 0.0 mm 0 W/m2
02:59 6.9 °C 3.1 °C 1004.1 hPa West 9.7 km/h 9.7 km/h 77% 0.0 mm 0 W/m2
03:04 6.9 °C 3.1 °C 1004.1 hPa West 3.2 km/h 11.3 km/h 77% 0.0 mm 0 W/m2
03:09 6.8 °C 3.1 °C 1004.4 hPa WSW 7.9 km/h 12.9 km/h 77% 0.0 mm 0 W/m2
03:14 6.7 °C 3 °C 1004.1 hPa West 3.2 km/h 4.8 km/h 77% 0.0 mm 0 W/m2
03:19 6.7 °C 2.8 °C 1004.4 hPa WNW 6.4 km/h 8 km/h 76% 0.0 mm 0 W/m2
03:24 6.6 °C 2.7 °C 1004.4 hPa West 6.4 km/h 11.3 km/h 76% 0.0 mm 0 W/m2
03:29 6.5 °C 2.6 °C 1004.1 hPa West 4.7 km/h 9.7 km/h 76% 0.0 mm 0 W/m2
03:34 6.4 °C 2.5 °C 1004.1 hPa West 9.7 km/h 12.9 km/h 76% 0.0 mm 0 W/m2
03:39 6.4 °C 2.5 °C 1004.1 hPa WSW 4.7 km/h 11.3 km/h 76% 0.0 mm 0 W/m2
03:45 6.4 °C 2.5 °C 1004.1 hPa West 9.7 km/h 9.7 km/h 76% 0.0 mm 0 W/m2
03:50 6.3 °C 2.6 °C 1004.1 hPa West 3.2 km/h 4.8 km/h 77% 0.0 mm 0 W/m2
03:55 6.3 °C 2.6 °C 1004.1 hPa WNW 7.9 km/h 11.3 km/h 77% 0.0 mm 0 W/m2
04:00 6.2 °C 2.5 °C 1004.1 hPa WNW 4.7 km/h 12.9 km/h 77% 0.0 mm 0 W/m2
04:05 6.1 °C 2.4 °C 1004.1 hPa West 3.2 km/h 11.3 km/h 77% 0.0 mm 0 W/m2
04:10 6.1 °C 2.4 °C 1004.1 hPa WNW 4.7 km/h 9.7 km/h 77% 0.0 mm 0 W/m2
04:15 6 °C 2.3 °C 1004.1 hPa WNW 4.7 km/h 8 km/h 77% 0.0 mm 0 W/m2
04:20 5.9 °C 2.2 °C 1004.4 hPa West 4.7 km/h 11.3 km/h 77% 0.0 mm 0 W/m2
04:25 5.8 °C 2.3 °C 1004.4 hPa WNW 4.7 km/h 9.7 km/h 78% 0.0 mm 0 W/m2
04:30 5.8 °C 2.3 °C 1004.4 hPa NW 6.4 km/h 6.4 km/h 78% 0.0 mm 0 W/m2
04:35 5.7 °C 2.2 °C 1004.4 hPa WNW 1.4 km/h 6.4 km/h 78% 0.0 mm 0 W/m2
04:40 5.6 °C 2.1 °C 1004.4 hPa WNW 3.2 km/h 12.9 km/h 78% 0.0 mm 0 W/m2
04:45 5.5 °C 2 °C 1004.4 hPa WNW 7.9 km/h 11.3 km/h 78% 0.0 mm 0 W/m2
04:50 5.5 °C 2 °C 1004.4 hPa WNW 6.4 km/h 22.5 km/h 78% 0.0 mm 0 W/m2
04:55 5.4 °C 1.9 °C 1004.4 hPa West 6.4 km/h 16.1 km/h 78% 0.0 mm 0 W/m2
05:00 5.4 °C 1.9 °C 1004.4 hPa WNW 3.2 km/h 17.7 km/h 78% 0.0 mm 0 W/m2
05:05 5.3 °C 1.8 °C 1004.4 hPa West 3.2 km/h 11.3 km/h 78% 0.0 mm 0 W/m2
05:10 5.2 °C 1.9 °C 1004.4 hPa WNW 3.2 km/h 16.1 km/h 79% 0.0 mm 0 W/m2
05:15 5.1 °C 1.8 °C 1004.4 hPa SW 6.4 km/h 9.7 km/h 79% 0.0 mm 0 W/m2
05:20 5.1 °C 1.8 °C 1004.7 hPa WSW 3.2 km/h 16.1 km/h 79% 0.0 mm 0 W/m2
05:25 4.9 °C 1.7 °C 1004.7 hPa West 4.7 km/h 9.7 km/h 80% 0.0 mm 0 W/m2
05:30 4.9 °C 1.7 °C 1004.7 hPa WNW 4.7 km/h 9.7 km/h 80% 0.0 mm 0 W/m2
05:35 4.8 °C 1.6 °C 1004.7 hPa WNW 6.4 km/h 12.9 km/h 80% 0.0 mm 0 W/m2
05:40 4.8 °C 1.6 °C 1004.7 hPa WNW 4.7 km/h 14.5 km/h 80% 0.0 mm 0 W/m2
05:45 4.7 °C 1.5 °C 1004.7 hPa WNW 4.7 km/h 9.7 km/h 80% 0.0 mm 0 W/m2
05:50 4.7 °C 1.7 °C 1004.7 hPa West 6.4 km/h 12.9 km/h 81% 0.0 mm 0 W/m2
05:55 4.6 °C 1.6 °C 1004.7 hPa WSW 4.7 km/h 11.3 km/h 81% 0.0 mm 0 W/m2
06:00 4.6 °C 1.6 °C 1004.7 hPa West 6.4 km/h 12.9 km/h 81% 0.0 mm 0 W/m2
06:05 4.6 °C 1.8 °C 1004.7 hPa WNW 3.2 km/h 11.3 km/h 82% 0.0 mm 0 W/m2
06:10 4.5 °C 1.7 °C 1004.7 hPa NW 4.7 km/h 12.9 km/h 82% 0.0 mm 0 W/m2
06:15 4.4 °C 1.6 °C 1004.7 hPa West 3.2 km/h 12.9 km/h 82% 0.0 mm 5 W/m2
06:20 4.4 °C 1.6 °C 1005.1 hPa West 4.7 km/h 12.9 km/h 82% 0.0 mm 9 W/m2
06:25 4.4 °C 1.8 °C 1005.1 hPa West 4.7 km/h 11.3 km/h 83% 0.0 mm 11 W/m2
06:30 4.4 °C 1.8 °C 1005.1 hPa WNW 6.4 km/h 8 km/h 83% 0.0 mm 12 W/m2
06:35 4.4 °C 1.8 °C 1005.1 hPa WNW 4.7 km/h 4.8 km/h 83% 0.0 mm 16 W/m2
06:40 4.4 °C 1.8 °C 1005.4 hPa SSW 1.4 km/h 11.3 km/h 83% 0.0 mm 18 W/m2
06:45 4.4 °C 1.8 °C 1005.4 hPa West 13 km/h 12.9 km/h 83% 0.0 mm 21 W/m2
06:50 4.5 °C 1.9 °C 1005.4 hPa West 4.7 km/h 11.3 km/h 83% 0.0 mm 23 W/m2
06:55 4.6 °C 2.1 °C 1005.4 hPa West 12.9 km/h 12.9 km/h 84% 0.0 mm 26 W/m2
07:01 4.6 °C 2 °C 1005.8 hPa NNW 1.4 km/h 11.3 km/h 83% 0.0 mm 35 W/m2
07:06 4.7 °C 2.2 °C 1005.8 hPa West 11.1 km/h 12.9 km/h 84% 0.0 mm 33 W/m2
07:11 4.7 °C 2.2 °C 1005.8 hPa West 6.4 km/h 11.3 km/h 84% 0.0 mm 35 W/m2
07:16 4.8 °C 2.3 °C 1006.1 hPa WNW 9.7 km/h 14.5 km/h 84% 0.0 mm 54 W/m2
07:21 4.8 °C 2.3 °C 1006.1 hPa SW 4.7 km/h 16.1 km/h 84% 0.0 mm 67 W/m2
07:26 4.9 °C 2.4 °C 1006.1 hPa WSW 11.1 km/h 11.3 km/h 84% 0.0 mm 102 W/m2
07:31 5 °C 2.5 °C 1006.1 hPa NW 7.9 km/h 16.1 km/h 84% 0.0 mm 62 W/m2
07:36 5.1 °C 2.6 °C 1006.4 hPa NW 7.9 km/h 14.5 km/h 84% 0.0 mm 84 W/m2
07:41 5.3 °C 2.8 °C 1006.4 hPa WSW 4.7 km/h 12.9 km/h 84% 0.0 mm 65 W/m2
07:46 5.3 °C 2.6 °C 1006.4 hPa WNW 7.9 km/h 17.7 km/h 83% 0.0 mm 72 W/m2
07:51 5.4 °C 2.7 °C 1006.4 hPa West 9.7 km/h 16.1 km/h 83% 0.0 mm 69 W/m2
07:56 5.7 °C 3 °C 1006.4 hPa SW 7.9 km/h 16.1 km/h 83% 0.0 mm 109 W/m2
08:01 5.8 °C 3.1 °C 1006.4 hPa SW 4.7 km/h 11.3 km/h 83% 0.0 mm 118 W/m2
08:06 6.1 °C 3.3 °C 1006.4 hPa WSW 6.4 km/h 17.7 km/h 82% 0.0 mm 72 W/m2
08:11 6.2 °C 3.2 °C 1006.4 hPa WNW 11.1 km/h 24.1 km/h 81% 0.0 mm 54 W/m2
Juneau County Weather
Compliments of Weather Underground - 2 mb